Time;durP1;ratioP1;P1;durP2;ratioP2;P2;SDS_P1;SDS_P2;PMS_P1;PMS_P2;Temp;Humidity;BMP_temperature;BMP_pressure;BME280_temperature;BME280_humidity;BME280_pressure;Samples;Min_cycle;Max_cycle;Signal;HPM_P1;HPM_P2
2022/09/23 00:00:18;;;;;;;;;;;;;;;10.39;66.93;101632.72;5064452;28;20368;-73
2022/09/23 00:02:47;;;;;;;;;;;;;;;10.26;67.80;101626.22;5063678;28;19931;-73
2022/09/23 00:05:13;;;;;;;;;;;;;;;9.98;68.61;101622.81;5067109;28;19956;-73
2022/09/23 00:07:41;;;;;;;;;;;;;;;9.78;69.63;101616.53;5063165;28;19924;-74
2022/09/23 00:10:08;;;;;;;;;;;;;;;9.74;70.30;101622.78;5062592;28;19978;-73
2022/09/23 00:12:34;;;;;;;;;;;;;;;9.94;69.61;101616.00;5065448;28;19924;-73
2022/09/23 00:15:00;;;;;;;;;;;;;;;10.20;68.55;101623.81;5060750;28;19974;-73
2022/09/23 00:17:27;;;;;;;;;;;;;;;10.39;67.94;101621.38;5067502;28;19955;-78
2022/09/23 00:19:54;;;;;;;;;;;;;;;10.69;66.28;101615.84;5074176;28;20346;-79
2022/09/23 00:22:20;;;;;;;;;;;;;;;10.53;66.74;101613.88;5073065;28;19925;-80
2022/09/23 00:24:48;;;;;;;;;;;;;;;10.44;67.25;101614.22;5068041;28;20476;-79
2022/09/23 00:27:14;;;;;;;;;;;;;;;10.57;66.87;101611.06;5067559;28;19924;-78
2022/09/23 00:29:40;;;;;;;;;;;;;;;10.61;67.00;101623.16;5066850;28;19925;-78
2022/09/23 00:32:07;;;;;;;;;;;;;;;10.73;66.43;101619.22;5069664;28;19928;-78
2022/09/23 00:34:33;;;;;;;;;;;;;;;10.72;66.75;101614.88;5069204;28;19978;-78
2022/09/23 00:36:59;;;;;;;;;;;;;;;10.84;66.55;101618.78;5066751;28;19925;-78
2022/09/23 00:39:25;;;;;;;;;;;;;;;10.36;68.52;101609.25;5065064;28;19928;-78
2022/09/23 00:41:53;;;;;;;;;;;;;;;10.37;68.72;101613.59;5068585;28;19930;-79
2022/09/23 00:44:40;;;;;;;;;;;;;;;10.36;68.67;101601.38;5067945;28;20009;-79
2022/09/23 00:47:11;;;;;;;;;;;;;;;10.20;68.64;101606.31;5062690;28;20380;-78
2022/09/23 00:49:37;;;;;;;;;;;;;;;10.37;68.74;101602.25;5067586;28;19924;-78
2022/09/23 00:52:07;;;;;;;;;;;;;;;10.16;69.85;101596.03;5067684;28;19924;-77
2022/09/23 00:54:33;;;;;;;;;;;;;;;10.04;70.34;101594.66;5069883;28;19924;-79
2022/09/23 00:57:02;;;;;;;;;;;;;;;10.39;68.99;101596.00;5067523;28;19970;-79
2022/09/23 00:59:29;;;;;;;;;;;;;;;10.53;68.55;101598.16;5066653;28;19951;-79
2022/09/23 01:01:57;;;;;;;;;;;;;;;10.48;67.87;101590.44;5069856;28;20343;-78
2022/09/23 01:04:24;;;;;;;;;;;;;;;10.69;67.15;101594.00;5068619;28;19924;-78
2022/09/23 01:06:50;;;;;;;;;;;;;;;10.81;66.43;101592.69;5065938;28;19925;-78
2022/09/23 01:09:17;;;;;;;;;;;;;;;10.77;67.13;101591.09;5067530;28;19924;-78
2022/09/23 01:11:47;;;;;;;;;;;;;;;10.98;66.54;101591.09;5075609;28;19950;-80
2022/09/23 01:14:25;;;;;;;;;;;;;;;10.90;66.67;101587.09;5075552;28;19978;-79
2022/09/23 01:16:54;;;;;;;;;;;;;;;10.35;69.38;101583.94;5059880;28;19924;-78
2022/09/23 01:19:30;;;;;;;;;;;;;;;10.84;66.93;101580.28;5067535;28;20384;-77
2022/09/23 01:22:03;;;;;;;;;;;;;;;10.51;68.15;101573.72;5068040;28;19928;-77
2022/09/23 01:24:37;;;;;;;;;;;;;;;10.21;69.29;101575.72;5068217;28;19931;-77
2022/09/23 01:27:22;;;;;;;;;;;;;;;10.13;69.84;101567.25;5068217;28;19977;-78
2022/09/23 01:30:10;;;;;;;;;;;;;;;10.39;67.87;101563.69;5048808;28;19925;-80
2022/09/23 01:32:42;;;;;;;;;;;;;;;10.72;66.94;101567.66;5065975;28;19924;-80
2022/09/23 01:35:13;;;;;;;;;;;;;;;10.91;66.01;101559.91;5067107;28;19930;-80
2022/09/23 01:37:44;;;;;;;;;;;;;;;10.63;67.07;101563.63;5067887;28;19932;-79
2022/09/23 01:40:14;;;;;;;;;;;;;;;10.78;66.19;101563.94;5067449;28;19947;-79
2022/09/23 01:42:41;;;;;;;;;;;;;;;10.54;66.30;101565.75;5068442;28;20011;-79
2022/09/23 01:45:11;;;;;;;;;;;;;;;10.65;65.87;101563.56;5065558;28;19971;-79
2022/09/23 01:47:42;;;;;;;;;;;;;;;10.54;66.25;101563.13;5069498;28;19967;-80
2022/09/23 01:52:53;;;;;;;;;;;;;;;10.47;66.26;101548.53;5067868;28;19955;-79
2022/09/23 01:55:23;;;;;;;;;;;;;;;10.49;65.76;101555.44;5067218;28;19932;-79
2022/09/23 01:57:53;;;;;;;;;;;;;;;10.37;66.44;101553.28;5065970;28;19925;-79
2022/09/23 02:00:21;;;;;;;;;;;;;;;10.16;66.44;101556.72;5068676;28;19928;-79
2022/09/23 02:02:52;;;;;;;;;;;;;;;9.53;67.65;101542.38;5068850;28;19934;-79
2022/09/23 02:05:21;;;;;;;;;;;;;;;9.71;67.62;101544.34;5065444;28;20404;-79
2022/09/23 02:07:51;;;;;;;;;;;;;;;9.95;67.90;101539.97;5066993;28;20285;-79
2022/09/23 02:10:22;;;;;;;;;;;;;;;9.60;69.77;101543.00;5065561;28;19925;-79
2022/09/23 02:12:52;;;;;;;;;;;;;;;9.22;69.31;101539.91;5066188;28;20155;-79
2022/09/23 02:15:20;;;;;;;;;;;;;;;9.20;69.92;101539.09;5066568;28;19932;-79
2022/09/23 02:17:49;;;;;;;;;;;;;;;9.14;70.86;101528.84;5066314;28;19947;-79
2022/09/23 02:20:20;;;;;;;;;;;;;;;8.91;70.43;101527.88;5066358;28;20013;-79
2022/09/23 02:22:51;;;;;;;;;;;;;;;8.69;72.51;101528.56;5068692;28;19924;-79
2022/09/23 02:25:18;;;;;;;;;;;;;;;8.86;70.80;101529.81;5066685;28;19932;-79
2022/09/23 02:27:47;;;;;;;;;;;;;;;9.04;69.80;101529.22;5073845;28;19927;-79
2022/09/23 02:30:15;;;;;;;;;;;;;;;9.45;69.71;101531.28;5074406;28;19932;-79
2022/09/23 02:32:46;;;;;;;;;;;;;;;9.50;70.35;101523.25;5065833;28;19928;-79
2022/09/23 02:35:16;;;;;;;;;;;;;;;9.47;70.27;101524.22;5064811;28;19974;-80
2022/09/23 02:37:47;;;;;;;;;;;;;;;9.58;69.30;101522.09;5064706;28;19924;-79
2022/09/23 02:40:16;;;;;;;;;;;;;;;9.51;69.19;101524.97;5064819;28;19931;-80
2022/09/23 02:42:48;;;;;;;;;;;;;;;9.34;69.58;101520.34;5082966;28;19928;-80
2022/09/23 02:45:15;;;;;;;;;;;;;;;9.51;68.86;101522.34;5075172;28;20262;-80
2022/09/23 02:47:43;;;;;;;;;;;;;;;9.61;68.45;101515.88;5067654;28;20364;-80
2022/09/23 02:50:10;;;;;;;;;;;;;;;9.41;68.77;101521.84;5065955;28;20446;-81
2022/09/23 02:52:37;;;;;;;;;;;;;;;9.57;67.80;101520.38;5066787;28;19936;-81
2022/09/23 02:55:05;;;;;;;;;;;;;;;9.17;68.76;101512.19;5066223;28;19924;-80
2022/09/23 02:57:32;;;;;;;;;;;;;;;9.22;69.12;101515.50;5069279;28;19955;-80
2022/09/23 03:00:00;;;;;;;;;;;;;;;9.01;70.42;101506.63;5066597;28;19925;-80
2022/09/23 03:02:40;;;;;;;;;;;;;;;9.15;69.39;101507.03;5066375;28;19931;-80
2022/09/23 03:05:11;;;;;;;;;;;;;;;9.40;67.93;101501.78;5066334;28;19924;-81
2022/09/23 03:07:44;;;;;;;;;;;;;;;9.37;68.59;101501.03;5065700;28;20050;-81
2022/09/23 03:10:15;;;;;;;;;;;;;;;9.01;68.50;101498.78;5079265;28;20300;-81
2022/09/23 03:12:46;;;;;;;;;;;;;;;8.65;68.57;101490.34;5068095;28;19925;-81
2022/09/23 03:15:18;;;;;;;;;;;;;;;8.62;68.69;101495.69;5066483;28;19954;-81
2022/09/23 03:17:49;;;;;;;;;;;;;;;8.77;67.78;101486.50;5066240;28;19932;-80
2022/09/23 03:20:22;;;;;;;;;;;;;;;8.52;69.38;101482.94;5074010;28;19924;-84
2022/09/23 03:22:52;;;;;;;;;;;;;;;8.38;70.80;101492.97;5065223;28;19985;-82
2022/09/23 03:25:21;;;;;;;;;;;;;;;8.42;70.75;101490.25;5073286;28;19977;-80
2022/09/23 03:27:49;;;;;;;;;;;;;;;8.48;71.12;101478.72;5045593;28;19991;-80
2022/09/23 03:30:15;;;;;;;;;;;;;;;8.31;71.93;101479.25;5063818;28;19929;-81
2022/09/23 03:32:44;;;;;;;;;;;;;;;8.27;72.46;101472.38;5066475;28;20357;-81
2022/09/23 03:35:11;;;;;;;;;;;;;;;8.30;71.45;101477.53;5066251;28;19925;-81
2022/09/23 03:37:40;;;;;;;;;;;;;;;8.33;71.08;101472.22;5064052;28;19932;-81
2022/09/23 03:40:09;;;;;;;;;;;;;;;8.21;71.13;101472.53;5067303;28;20277;-81
2022/09/23 03:42:37;;;;;;;;;;;;;;;8.19;70.84;101479.59;5066616;28;19928;-81
2022/09/23 03:45:07;;;;;;;;;;;;;;;8.31;70.68;101471.41;5065125;28;19925;-81
2022/09/23 03:47:34;;;;;;;;;;;;;;;8.31;70.21;101464.41;5065676;28;19924;-81
2022/09/23 03:50:01;;;;;;;;;;;;;;;8.10;70.82;101465.03;5065911;28;19985;-81
2022/09/23 03:52:27;;;;;;;;;;;;;;;8.01;71.32;101470.53;5065105;28;20291;-81
2022/09/23 03:54:53;;;;;;;;;;;;;;;8.12;71.19;101465.84;5066455;28;20384;-81
2022/09/23 03:57:21;;;;;;;;;;;;;;;8.00;71.45;101466.22;5070173;28;20015;-81
2022/09/23 03:59:49;;;;;;;;;;;;;;;7.98;72.17;101467.19;5068202;28;19930;-81
2022/09/23 04:02:15;;;;;;;;;;;;;;;7.91;72.19;101458.63;5070370;28;19932;-80
2022/09/23 04:04:42;;;;;;;;;;;;;;;7.96;72.16;101459.38;5077971;28;19977;-80
2022/09/23 04:07:09;;;;;;;;;;;;;;;7.92;72.37;101454.28;5068276;28;19932;-80
2022/09/23 04:09:36;;;;;;;;;;;;;;;7.84;72.21;101447.53;5077411;28;19950;-80
2022/09/23 04:12:03;;;;;;;;;;;;;;;7.77;71.70;101446.00;5090639;28;19928;-80
2022/09/23 04:14:29;;;;;;;;;;;;;;;7.66;71.94;101457.63;5079463;28;19935;-80
2022/09/23 04:16:57;;;;;;;;;;;;;;;7.74;71.69;101442.63;5071717;28;19924;-80
2022/09/23 04:19:23;;;;;;;;;;;;;;;7.71;71.02;101447.94;5069315;28;19955;-80
2022/09/23 04:21:49;;;;;;;;;;;;;;;7.76;71.65;101441.66;5068835;28;19932;-80
2022/09/23 04:24:16;;;;;;;;;;;;;;;7.85;71.54;101445.78;5070259;28;20338;-80
2022/09/23 04:26:42;;;;;;;;;;;;;;;7.80;71.60;101435.47;5068896;28;20346;-80
2022/09/23 04:29:09;;;;;;;;;;;;;;;7.66;72.02;101434.16;5077604;28;19958;-80
2022/09/23 04:31:36;;;;;;;;;;;;;;;7.62;72.09;101441.22;5077827;28;19973;-80
2022/09/23 04:34:03;;;;;;;;;;;;;;;7.76;71.91;101433.00;5070388;28;20005;-80
2022/09/23 04:36:30;;;;;;;;;;;;;;;7.76;73.35;101435.63;5069215;28;19932;-80
2022/09/23 04:38:56;;;;;;;;;;;;;;;7.76;73.63;101433.84;5077129;28;20337;-80
2022/09/23 04:41:22;;;;;;;;;;;;;;;8.09;71.67;101438.97;5089524;28;19928;-79
2022/09/23 04:43:48;;;;;;;;;;;;;;;8.01;71.78;101435.72;5087997;28;19924;-79
2022/09/23 04:46:15;;;;;;;;;;;;;;;7.99;70.86;101429.69;5075297;28;19970;-79
2022/09/23 04:48:41;;;;;;;;;;;;;;;7.98;70.94;101426.22;5073856;28;19932;-79
2022/09/23 04:51:10;;;;;;;;;;;;;;;7.83;71.46;101439.75;5079036;28;19928;-78
2022/09/23 04:53:37;;;;;;;;;;;;;;;8.03;71.31;101428.69;5077282;28;19928;-81
2022/09/23 04:56:05;;;;;;;;;;;;;;;8.19;70.69;101427.34;5058951;28;20331;-83
2022/09/23 04:58:31;;;;;;;;;;;;;;;8.06;71.58;101424.22;5082805;28;19950;-83
2022/09/23 05:00:57;;;;;;;;;;;;;;;7.96;72.14;101429.78;5070719;28;19952;-83
2022/09/23 05:03:24;;;;;;;;;;;;;;;8.00;71.63;101427.03;5079242;28;19928;-83
2022/09/23 05:05:50;;;;;;;;;;;;;;;7.97;71.64;101427.13;5066927;28;19929;-82
2022/09/23 05:08:18;;;;;;;;;;;;;;;8.04;71.59;101435.63;5070009;28;20248;-82
2022/09/23 05:10:44;;;;;;;;;;;;;;;8.07;71.79;101439.00;5074729;28;19925;-82
2022/09/23 05:13:11;;;;;;;;;;;;;;;7.98;71.58;101433.22;5053586;28;19936;-82
2022/09/23 05:15:37;;;;;;;;;;;;;;;8.26;71.29;101431.47;5068965;28;19924;-82
2022/09/23 05:18:03;;;;;;;;;;;;;;;8.31;72.34;101427.81;5082823;28;19924;-82
2022/09/23 05:20:29;;;;;;;;;;;;;;;8.53;71.42;101428.03;5086097;28;20636;-82
2022/09/23 05:22:56;;;;;;;;;;;;;;;8.55;72.65;101436.66;5068556;28;19986;-82
2022/09/23 05:25:23;;;;;;;;;;;;;;;8.75;71.79;101429.03;5087366;28;19927;-82
2022/09/23 05:27:50;;;;;;;;;;;;;;;8.81;70.49;101427.97;5086601;28;20469;-82
2022/09/23 05:30:16;;;;;;;;;;;;;;;9.02;69.06;101426.38;5076467;28;19993;-82
2022/09/23 05:32:42;;;;;;;;;;;;;;;9.06;68.86;101426.22;5069046;28;19933;-82
2022/09/23 05:35:08;;;;;;;;;;;;;;;9.10;68.88;101424.34;5086909;28;19924;-82
2022/09/23 05:37:35;;;;;;;;;;;;;;;9.14;69.21;101423.34;5088664;28;19957;-82
2022/09/23 05:40:02;;;;;;;;;;;;;;;8.97;71.22;101430.91;5066431;28;19924;-83
2022/09/23 05:42:29;;;;;;;;;;;;;;;9.10;71.30;101433.06;5065150;28;19929;-82
2022/09/23 05:44:56;;;;;;;;;;;;;;;9.21;70.32;101428.31;5066552;28;20281;-82
2022/09/23 05:47:22;;;;;;;;;;;;;;;9.22;70.34;101430.03;5069476;28;19924;-82
2022/09/23 05:49:48;;;;;;;;;;;;;;;9.09;71.36;101427.91;5079969;28;19973;-82
2022/09/23 05:52:15;;;;;;;;;;;;;;;8.96;72.42;101424.84;5074580;28;19954;-81
2022/09/23 05:54:41;;;;;;;;;;;;;;;8.64;74.22;101427.66;5071157;28;19960;-81
2022/09/23 05:57:07;;;;;;;;;;;;;;;8.86;74.64;101431.28;5067320;28;19982;-81
2022/09/23 05:59:36;;;;;;;;;;;;;;;9.16;73.62;101434.63;5068270;28;19994;-81
2022/09/23 06:02:03;;;;;;;;;;;;;;;9.50;72.07;101429.00;5056706;28;19925;-81
2022/09/23 06:04:29;;;;;;;;;;;;;;;9.40;72.17;101432.88;5068921;28;20346;-82
2022/09/23 06:06:56;;;;;;;;;;;;;;;9.23;73.15;101425.66;5088847;28;19924;-82
2022/09/23 06:09:22;;;;;;;;;;;;;;;8.98;74.52;101424.78;5078861;28;19957;-80
2022/09/23 06:11:49;;;;;;;;;;;;;;;8.79;75.97;101425.38;5087086;28;19973;-80
2022/09/23 06:14:16;;;;;;;;;;;;;;;9.40;74.33;101428.50;5069082;28;19950;-80
2022/09/23 06:16:43;;;;;;;;;;;;;;;9.69;72.61;101420.44;5067280;28;20330;-81
2022/09/23 06:19:10;;;;;;;;;;;;;;;9.25;74.35;101422.06;5074086;28;19931;-81
2022/09/23 06:21:37;;;;;;;;;;;;;;;9.71;72.53;101421.25;5088532;28;19936;-81
2022/09/23 06:24:03;;;;;;;;;;;;;;;9.57;73.26;101426.13;5071724;28;19974;-81
2022/09/23 06:26:32;;;;;;;;;;;;;;;9.72;72.73;101420.31;5075335;28;19946;-81
2022/09/23 06:28:59;;;;;;;;;;;;;;;9.77;72.79;101409.69;5084571;28;19975;-81
2022/09/23 06:31:25;;;;;;;;;;;;;;;10.13;72.79;101413.50;5074712;28;19924;-81
2022/09/23 06:33:53;;;;;;;;;;;;;;;10.50;73.09;101407.69;5076549;28;19924;-80
2022/09/23 06:36:20;;;;;;;;;;;;;;;10.98;69.26;101414.41;5076408;28;19931;-80
2022/09/23 06:38:48;;;;;;;;;;;;;;;11.39;68.05;101407.38;5065410;28;19925;-80
2022/09/23 06:41:14;;;;;;;;;;;;;;;11.88;66.52;101396.38;5070749;28;19924;-80
2022/09/23 06:43:40;;;;;;;;;;;;;;;11.97;67.18;101403.81;5066692;28;19928;-80
2022/09/23 06:46:07;;;;;;;;;;;;;;;11.98;66.40;101402.06;5071000;28;19925;-80
2022/09/23 06:48:34;;;;;;;;;;;;;;;12.29;65.66;101406.72;5062031;28;19929;-80
2022/09/23 06:51:03;;;;;;;;;;;;;;;12.91;63.70;101398.34;5063804;28;19942;-80
2022/09/23 06:53:31;;;;;;;;;;;;;;;13.41;62.78;101403.66;5072540;28;19924;-80
2022/09/23 06:55:58;;;;;;;;;;;;;;;13.76;59.67;101396.50;5060941;28;20419;-79
2022/09/23 06:58:25;;;;;;;;;;;;;;;13.45;61.14;101398.13;5065596;28;19978;-79
2022/09/23 07:00:51;;;;;;;;;;;;;;;12.76;64.26;101399.97;5073600;28;19929;-79
2022/09/23 07:03:18;;;;;;;;;;;;;;;13.19;64.14;101405.72;5058643;28;20070;-79
2022/09/23 07:05:44;;;;;;;;;;;;;;;13.34;62.19;101405.75;5056582;28;19929;-79
2022/09/23 07:08:11;;;;;;;;;;;;;;;13.28;63.24;101411.34;5064464;28;19958;-78
2022/09/23 07:10:38;;;;;;;;;;;;;;;12.93;64.91;101414.91;5071524;28;19924;-78
2022/09/23 07:13:04;;;;;;;;;;;;;;;13.29;62.28;101414.84;5065949;28;20346;-78
2022/09/23 07:15:31;;;;;;;;;;;;;;;14.26;60.58;101417.44;5070368;28;19929;-78
2022/09/23 07:17:57;;;;;;;;;;;;;;;13.32;61.61;101412.91;5069378;28;19928;-78
2022/09/23 07:20:23;;;;;;;;;;;;;;;12.94;64.52;101417.47;5065623;28;21120;-77
2022/09/23 07:22:51;;;;;;;;;;;;;;;13.94;62.95;101419.22;5070207;28;19955;-77
2022/09/23 07:25:18;;;;;;;;;;;;;;;14.09;59.96;101416.59;5064720;28;19924;-77
2022/09/23 07:27:45;;;;;;;;;;;;;;;13.95;59.76;101419.13;5064680;28;19933;-77
2022/09/23 07:30:12;;;;;;;;;;;;;;;14.28;60.63;101416.41;5082427;28;19981;-77
2022/09/23 07:32:38;;;;;;;;;;;;;;;14.24;61.81;101417.50;5067238;28;19978;-77
2022/09/23 07:35:05;;;;;;;;;;;;;;;15.23;59.88;101417.03;5079712;28;20212;-77
2022/09/23 07:37:31;;;;;;;;;;;;;;;15.13;57.76;101415.88;5077254;28;19928;-77
2022/09/23 07:39:58;;;;;;;;;;;;;;;15.54;57.14;101416.91;5065309;28;19928;-77
2022/09/23 07:42:25;;;;;;;;;;;;;;;15.69;55.51;101412.47;5063421;28;19928;-77
2022/09/23 07:44:54;;;;;;;;;;;;;;;15.71;55.20;101415.84;5070221;28;20434;-77
2022/09/23 07:47:20;;;;;;;;;;;;;;;14.52;58.50;101403.66;5065104;28;19925;-77
2022/09/23 07:49:46;;;;;;;;;;;;;;;14.11;59.22;101413.88;5068796;28;19993;-77
2022/09/23 07:52:13;;;;;;;;;;;;;;;14.19;60.18;101405.53;5078126;28;19925;-77
2022/09/23 07:54:39;;;;;;;;;;;;;;;13.98;60.42;101413.69;5073930;28;19924;-76
2022/09/23 07:57:05;;;;;;;;;;;;;;;14.09;59.75;101411.31;5081627;28;19928;-76
2022/09/23 07:59:33;;;;;;;;;;;;;;;15.03;59.19;101410.31;5082883;28;19928;-79
2022/09/23 08:01:59;;;;;;;;;;;;;;;15.68;56.03;101406.31;5086220;28;19924;-79
2022/09/23 08:04:27;;;;;;;;;;;;;;;15.92;54.56;101411.88;5060512;28;19975;-79
2022/09/23 08:06:55;;;;;;;;;;;;;;;15.43;56.29;101408.75;5057006;28;19956;-77
2022/09/23 08:09:22;;;;;;;;;;;;;;;15.11;56.52;101413.34;5064963;28;19928;-80
2022/09/23 08:11:49;;;;;;;;;;;;;;;15.43;57.01;101404.31;5062522;28;19973;-78
2022/09/23 08:14:16;;;;;;;;;;;;;;;14.93;56.92;101403.84;5069228;28;20007;-78
2022/09/23 08:16:44;;;;;;;;;;;;;;;14.89;58.31;101395.25;5065616;28;19932;-78
2022/09/23 08:19:11;;;;;;;;;;;;;;;15.25;58.29;101394.88;5078800;28;19931;-78
2022/09/23 08:21:38;;;;;;;;;;;;;;;15.50;57.10;101399.53;5069198;28;19990;-78
2022/09/23 08:24:04;;;;;;;;;;;;;;;16.14;54.97;101391.03;5067759;28;19932;-78
2022/09/23 08:26:33;;;;;;;;;;;;;;;16.06;53.97;101391.53;5065424;28;19928;-78
2022/09/23 08:28:59;;;;;;;;;;;;;;;16.13;54.44;101391.97;5070747;28;19928;-77
2022/09/23 08:31:25;;;;;;;;;;;;;;;16.64;53.04;101384.25;5081389;28;19924;-78
2022/09/23 08:33:55;;;;;;;;;;;;;;;16.99;51.38;101388.03;5083190;28;19925;-78
2022/09/23 08:36:21;;;;;;;;;;;;;;;17.91;50.47;101385.97;5085014;28;19924;-77
2022/09/23 08:38:48;;;;;;;;;;;;;;;18.11;48.90;101388.00;5053832;28;19924;-77
2022/09/23 08:41:19;;;;;;;;;;;;;;;17.61;51.29;101386.34;5064046;28;19925;-77
2022/09/23 08:43:47;;;;;;;;;;;;;;;17.46;49.25;101390.06;5067484;28;19982;-77
2022/09/23 08:46:19;;;;;;;;;;;;;;;17.52;48.80;101384.31;5068789;28;19924;-77
2022/09/23 08:48:47;;;;;;;;;;;;;;;18.42;51.39;101382.16;5069360;28;19924;-77
2022/09/23 08:51:17;;;;;;;;;;;;;;;18.30;47.31;101375.09;5070400;28;19978;-77
2022/09/23 08:53:44;;;;;;;;;;;;;;;18.66;45.55;101368.06;5064375;28;19925;-77
2022/09/23 08:56:12;;;;;;;;;;;;;;;17.93;47.97;101374.28;5067498;28;19924;-77
2022/09/23 08:58:45;;;;;;;;;;;;;;;18.87;46.74;101361.94;5066586;28;20342;-77
2022/09/23 09:01:16;;;;;;;;;;;;;;;19.15;50.03;101365.97;5066711;28;19985;-77
2022/09/23 09:03:45;;;;;;;;;;;;;;;19.65;45.71;101356.72;5066966;28;19981;-77
2022/09/23 09:06:14;;;;;;;;;;;;;;;19.76;46.37;101354.06;5067207;28;19990;-77
2022/09/23 09:08:42;;;;;;;;;;;;;;;18.84;47.23;101356.03;5066526;28;19967;-77
2022/09/23 09:11:10;;;;;;;;;;;;;;;18.46;47.11;101354.44;5082124;28;20372;-77
2022/09/23 09:13:42;;;;;;;;;;;;;;;19.61;45.99;101351.75;5085613;28;19924;-77
2022/09/23 09:16:19;;;;;;;;;;;;;;;19.54;44.79;101355.88;5071016;28;20026;-77
2022/09/23 09:18:49;;;;;;;;;;;;;;;20.11;43.50;101345.00;5065130;28;19960;-77
2022/09/23 09:21:16;;;;;;;;;;;;;;;20.51;42.63;101343.41;5068890;28;19924;-77
2022/09/23 09:23:50;;;;;;;;;;;;;;;20.63;43.01;101337.06;5066127;28;19948;-77
2022/09/23 09:26:16;;;;;;;;;;;;;;;20.63;42.76;101336.22;5065789;28;19986;-77
2022/09/23 09:28:47;;;;;;;;;;;;;;;20.34;43.27;101344.00;5065560;28;20744;-77
2022/09/23 09:31:20;;;;;;;;;;;;;;;20.80;44.54;101344.47;5066744;28;19955;-77
2022/09/23 09:33:50;;;;;;;;;;;;;;;19.98;41.89;101345.19;5067258;28;19924;-77
2022/09/23 09:36:22;;;;;;;;;;;;;;;18.29;45.96;101343.38;5066756;28;19925;-77
2022/09/23 09:38:50;;;;;;;;;;;;;;;18.29;47.80;101338.88;5065770;28;20346;-77
2022/09/23 09:41:20;;;;;;;;;;;;;;;18.87;46.41;101342.50;5066181;28;19931;-77
2022/09/23 09:43:51;;;;;;;;;;;;;;;19.24;45.79;101348.47;5067179;28;19931;-77
2022/09/23 09:46:28;;;;;;;;;;;;;;;18.87;45.68;101337.19;5066073;28;20009;-77
2022/09/23 09:48:56;;;;;;;;;;;;;;;18.70;47.21;101340.28;5059199;28;19924;-77
2022/09/23 09:51:23;;;;;;;;;;;;;;;18.68;45.80;101334.25;5065812;28;19928;-77
2022/09/23 09:53:51;;;;;;;;;;;;;;;17.82;48.00;101339.72;5067658;28;19924;-77
2022/09/23 09:56:19;;;;;;;;;;;;;;;18.45;49.29;101331.47;5077341;28;19924;-77
2022/09/23 09:58:48;;;;;;;;;;;;;;;19.00;47.30;101326.44;5081339;28;20001;-77
2022/09/23 10:01:18;;;;;;;;;;;;;;;19.59;45.74;101313.78;5086496;28;19925;-77
2022/09/23 10:03:44;;;;;;;;;;;;;;;19.06;46.18;101328.66;5070551;28;20332;-77
2022/09/23 10:06:13;;;;;;;;;;;;;;;18.99;46.06;101319.47;5052368;28;19925;-77
2022/09/23 10:08:39;;;;;;;;;;;;;;;19.49;45.15;101316.34;5068816;28;19924;-77
2022/09/23 10:11:15;;;;;;;;;;;;;;;19.18;44.96;101317.06;5086443;28;20315;-77
2022/09/23 10:13:41;;;;;;;;;;;;;;;19.00;47.15;101314.00;5085627;28;20296;-77
2022/09/23 10:16:08;;;;;;;;;;;;;;;19.29;46.50;101315.22;5073388;28;19924;-77
2022/09/23 10:18:37;;;;;;;;;;;;;;;19.79;46.04;101307.72;5062557;28;19932;-77
2022/09/23 10:21:07;;;;;;;;;;;;;;;19.86;43.31;101308.91;5062718;28;20368;-76
2022/09/23 10:23:38;;;;;;;;;;;;;;;20.38;44.01;101306.31;5067160;28;19976;-76
2022/09/23 10:26:07;;;;;;;;;;;;;;;21.42;43.72;101308.06;5064988;28;19924;-76
2022/09/23 10:28:40;;;;;;;;;;;;;;;21.91;40.82;101304.56;5065099;28;19935;-76
2022/09/23 10:31:07;;;;;;;;;;;;;;;21.49;41.47;101302.06;5065390;28;19928;-76
2022/09/23 10:33:34;;;;;;;;;;;;;;;20.61;44.00;101303.53;5064769;28;20403;-76
2022/09/23 10:36:01;;;;;;;;;;;;;;;20.45;43.23;101300.47;5065373;28;19924;-71
2022/09/23 10:38:27;;;;;;;;;;;;;;;20.73;43.44;101300.66;5066342;28;19924;-71
2022/09/23 10:46:40;;;;;;;;;;;;;;;20.90;42.49;101301.91;5064421;28;19924;-71
2022/09/23 10:49:24;;;;;;;;;;;;;;;20.18;44.58;101296.44;5062862;28;19952;-71
2022/09/23 10:51:58;;;;;;;;;;;;;;;20.02;45.55;101298.69;5057973;28;19924;-71
2022/09/23 10:54:30;;;;;;;;;;;;;;;20.60;44.71;101285.84;5063333;28;20285;-71
2022/09/23 10:56:58;;;;;;;;;;;;;;;21.17;42.05;101278.22;5063994;28;19925;-70
2022/09/23 10:59:35;;;;;;;;;;;;;;;21.93;42.94;101275.91;5065858;28;20293;-70
2022/09/23 11:02:11;;;;;;;;;;;;;;;22.14;40.34;101268.59;5067110;28;19932;-70
2022/09/23 11:04:50;;;;;;;;;;;;;;;21.50;41.60;101276.22;5065114;28;19928;-71
2022/09/23 11:07:20;;;;;;;;;;;;;;;21.42;40.35;101270.72;5068563;28;20031;-70
2022/09/23 11:10:01;;;;;;;;;;;;;;;21.88;39.64;101262.94;5071247;28;19924;-71
2022/09/23 11:12:34;;;;;;;;;;;;;;;20.99;40.10;101266.44;5064288;28;20335;-70
2022/09/23 11:15:15;;;;;;;;;;;;;;;21.85;44.09;101257.88;5063636;28;19925;-70
2022/09/23 11:18:02;;;;;;;;;;;;;;;22.50;40.14;101264.38;5063050;28;20185;-70
2022/09/23 11:20:37;;;;;;;;;;;;;;;21.70;39.20;101259.25;5065319;28;19940;-70
2022/09/23 11:23:17;;;;;;;;;;;;;;;21.43;40.35;101259.91;5065622;28;19977;-70
2022/09/23 11:25:47;;;;;;;;;;;;;;;21.93;40.38;101255.38;5065772;28;19924;-70
2022/09/23 11:28:32;;;;;;;;;;;;;;;21.51;38.62;101246.72;5065450;28;20429;-70
2022/09/23 11:31:04;;;;;;;;;;;;;;;20.89;40.20;101246.88;5065907;28;20438;-70
2022/09/23 11:33:35;;;;;;;;;;;;;;;20.98;40.53;101247.94;5070722;28;19924;-70
2022/09/23 11:36:05;;;;;;;;;;;;;;;21.43;40.79;101251.91;5084523;28;19930;-71
2022/09/23 11:38:35;;;;;;;;;;;;;;;22.34;39.29;101227.53;5082626;28;19931;-71
2022/09/23 11:41:07;;;;;;;;;;;;;;;21.59;39.87;101228.19;5083936;28;19925;-70
2022/09/23 11:43:35;;;;;;;;;;;;;;;21.79;40.09;101234.41;5077235;28;19932;-71
2022/09/23 11:46:08;;;;;;;;;;;;;;;21.58;38.48;101228.34;5062740;28;20300;-70
2022/09/23 11:48:37;;;;;;;;;;;;;;;21.28;37.83;101218.59;5065134;28;19929;-71
2022/09/23 11:51:06;;;;;;;;;;;;;;;21.30;39.57;101212.13;5064588;28;19928;-70
2022/09/23 11:53:37;;;;;;;;;;;;;;;21.72;38.38;101210.09;5065040;28;19928;-70
2022/09/23 11:56:07;;;;;;;;;;;;;;;21.11;37.16;101206.75;5065589;28;20019;-70
2022/09/23 11:58:37;;;;;;;;;;;;;;;20.92;39.55;101206.63;5063009;28;19924;-70
2022/09/23 12:01:07;;;;;;;;;;;;;;;21.34;37.83;101202.03;5060609;28;19974;-70
2022/09/23 12:03:39;;;;;;;;;;;;;;;21.74;38.80;101201.94;5064374;28;19993;-70
2022/09/23 12:06:08;;;;;;;;;;;;;;;21.58;37.73;101191.81;5067232;28;19929;-71
2022/09/23 12:08:36;;;;;;;;;;;;;;;22.51;38.58;101185.84;5083193;28;20098;-70
2022/09/23 12:11:06;;;;;;;;;;;;;;;23.03;35.55;101182.59;5062566;28;19925;-70
2022/09/23 12:13:39;;;;;;;;;;;;;;;23.21;35.68;101180.78;5064388;28;19993;-70
2022/09/23 12:16:20;;;;;;;;;;;;;;;22.92;36.08;101179.25;5060658;28;19986;-71
2022/09/23 12:18:53;;;;;;;;;;;;;;;23.30;35.27;101173.69;5064808;28;20292;-71
2022/09/23 12:21:30;;;;;;;;;;;;;;;23.37;35.42;101164.06;5069020;28;19925;-71
2022/09/23 12:24:05;;;;;;;;;;;;;;;23.59;34.02;101160.13;5068128;28;19990;-71
2022/09/23 12:26:32;;;;;;;;;;;;;;;23.82;35.16;101160.53;5065717;28;20333;-71
2022/09/23 12:29:00;;;;;;;;;;;;;;;23.08;35.38;101158.91;5057368;28;19928;-71
2022/09/23 12:31:30;;;;;;;;;;;;;;;22.28;36.32;101170.16;5066990;28;19924;-71
2022/09/23 12:33:57;;;;;;;;;;;;;;;22.21;35.84;101158.38;5068140;28;19924;-71
2022/09/23 12:36:25;;;;;;;;;;;;;;;22.09;37.36;101164.88;5065285;28;19925;-71
2022/09/23 12:38:53;;;;;;;;;;;;;;;22.35;36.45;101158.91;5066696;28;19931;-71
2022/09/23 12:41:20;;;;;;;;;;;;;;;21.75;38.82;101153.78;5087421;28;19989;-71
2022/09/23 12:43:52;;;;;;;;;;;;;;;21.93;37.21;101158.41;5072442;28;19972;-71
2022/09/23 12:46:20;;;;;;;;;;;;;;;22.33;38.05;101151.88;5065593;28;19932;-71
2022/09/23 12:48:58;;;;;;;;;;;;;;;22.24;36.50;101152.75;5067893;28;19986;-71
2022/09/23 12:51:24;;;;;;;;;;;;;;;22.51;35.70;101153.78;5068796;28;20016;-71
2022/09/23 12:54:21;;;;;;;;;;;;;;;21.49;37.26;101146.44;5068056;28;19936;-70
2022/09/23 12:57:01;;;;;;;;;;;;;;;21.93;37.57;101143.25;5066741;28;19924;-70